KOFK/OFK METAR and TAF weather

Enter ICAO airport designator
Station Type Date Time Source
KOFK METAR 2020/07/06 23:54 UTC NOAA

KOFK 062354Z AUTO 02016G26KT 10SM VCTS SCT050 BKN100 24/16 A3000 RMK AO2 PK WND 04026/2348 LTG DSNT W-NE


Station Type Date Time Source
KOFK Decoded METAR 2020/07/06 23:54 UTC NOAA

KARL STEFAN MEMORIAL AIRPORT, NE, United States (KOFK) 41-59N 097-26W 470M
Jul 06, 2020 - 07:54 PM EDT / 2020.07.06 2354 UTC
Wind: from the NNE (020 degrees) at 18 MPH (16 KT) gusting to 30 MPH (26 KT):0
Visibility: 10 mile(s):0
Sky conditions: mostly cloudy
Weather: thunder in the vicinity; Lightning observed
Temperature: 75 F (24 C)
Dew Point: 60 F (16 C)
Relative Humidity: 60%
Pressure (altimeter): 30 in. Hg (1015 hPa)
ob: KOFK 062354Z AUTO 02016G26KT 10SM VCTS SCT050 BKN100 24/16 A3000 RMK AO2 PK WND 04026/2348 LTG DSNT W-NE
cycle: 0

Station Type Date Time Source
KOFK TAF 2020/07/06 18:33 UTC NOAA

TAF KOFK 061730Z 0618/0718 18010KT P6SM SCT040
FM070100 16008KT P6SM FEW050 SCT250
FM070500 18006KT P6SM SCT100 BKN250 PROB30 0706/0710 4SM TSRA BKN035CB
FM071300 20005KT P6SM SCT250
FM071700 18009KT P6SM FEW200

Example: see airport list